Tri Cities Airport Pasco US
ICAO: KPSC
IATA: PSC
Category: Medium
Scheduled Services: Yes

Elevation: 410 ft
TransAlt. 18000 ft.

Airport Communications:
CHINOOK APP/DEP:128.75
ATIS:125.65
CLNC DEL:120
CTAF:135.3
GND:121.8
SEATTLE RDO:122.4
TWR:135.3
UNICOM:122.95

KPSC Zoom In..

If you have problems with the map follow the link
https://www.worldairports.se/pages/airport.php?
ICAO=KPSC

Runways:

(A) RW 03L length 7711 ft width 150 ft
---- / hdg 30

(B) RW 03R length 4423 ft width 75 ft
---- / hdg 30

(C) RW 12 length 7703 ft width 150 ft
---- / hdg 119

(D) RW 21L length 4423 ft width 75 ft
---- / hdg 210

(E) RW 21R length 7711 ft width 150 ft
ILS 108.70 / hdg 210

(F) RW 30 length 7703 ft width 150 ft
---- / hdg 299

Location; KPSC
Day. 28 / Time. 13.53 Zulu
* Altimeter: 29.99
* Temperature: 04° c. 39.2°f.
* Wind from: 330° Speed 05 kn.
Dewpoint: 03° c.
Visibility: 9 Statute Miles.
Clouds: Scattered 8500 ft.
Clouds: Broken 11000 ft.

KPSC 281353Z 33005KT 9SM SCT085 BKN110 04/03 A2999 RMK AO2 SLP155 T00440033


Wind From 330°
Speed 05 kn.

 
 
jpsmedia worldairports.se 2020   terms of use